sensor_id;sensor_type;location;lat;lon;timestamp;temperature;humidity
24518;DHT22;12678;51.336;12.406;2023-02-15T00:01:41;3.00;99.90
24518;DHT22;12678;51.336;12.406;2023-02-15T00:04:08;2.90;99.90
24518;DHT22;12678;51.336;12.406;2023-02-15T00:06:34;3.00;99.90
24518;DHT22;12678;51.336;12.406;2023-02-15T00:09:00;2.90;99.90
24518;DHT22;12678;51.336;12.406;2023-02-15T00:11:26;2.90;99.90
24518;DHT22;12678;51.336;12.406;2023-02-15T00:16:45;2.70;99.90
24518;DHT22;12678;51.336;12.406;2023-02-15T00:19:13;2.70;99.90
24518;DHT22;12678;51.336;12.406;2023-02-15T00:21:40;2.70;99.90
24518;DHT22;12678;51.336;12.406;2023-02-15T00:24:08;2.70;99.90
24518;DHT22;12678;51.336;12.406;2023-02-15T00:26:34;2.80;99.90
24518;DHT22;12678;51.336;12.406;2023-02-15T00:29:01;2.70;99.90
24518;DHT22;12678;51.336;12.406;2023-02-15T00:31:28;2.70;99.90
24518;DHT22;12678;51.336;12.406;2023-02-15T00:34:00;2.70;99.90
24518;DHT22;12678;51.336;12.406;2023-02-15T00:36:25;2.70;99.90
24518;DHT22;12678;51.336;12.406;2023-02-15T00:38:51;2.60;99.90
24518;DHT22;12678;51.336;12.406;2023-02-15T00:41:17;2.60;99.90
24518;DHT22;12678;51.336;12.406;2023-02-15T00:43:43;2.60;99.90
24518;DHT22;12678;51.336;12.406;2023-02-15T00:46:08;2.50;99.90
24518;DHT22;12678;51.336;12.406;2023-02-15T00:48:34;2.50;99.90
24518;DHT22;12678;51.336;12.406;2023-02-15T00:51:00;2.50;99.90
24518;DHT22;12678;51.336;12.406;2023-02-15T00:53:28;2.50;99.90
24518;DHT22;12678;51.336;12.406;2023-02-15T00:55:54;2.40;99.90
24518;DHT22;12678;51.336;12.406;2023-02-15T00:58:19;2.40;99.90
24518;DHT22;12678;51.336;12.406;2023-02-15T01:00:46;2.40;99.90
24518;DHT22;12678;51.336;12.406;2023-02-15T01:03:13;2.40;99.90
24518;DHT22;12678;51.336;12.406;2023-02-15T01:05:39;2.30;99.90
24518;DHT22;12678;51.336;12.406;2023-02-15T01:08:05;2.30;99.90
24518;DHT22;12678;51.336;12.406;2023-02-15T01:10:33;2.30;99.90
24518;DHT22;12678;51.336;12.406;2023-02-15T01:12:59;2.40;99.90
24518;DHT22;12678;51.336;12.406;2023-02-15T01:15:25;2.40;99.90
24518;DHT22;12678;51.336;12.406;2023-02-15T01:17:51;2.40;99.90
24518;DHT22;12678;51.336;12.406;2023-02-15T01:20:24;2.50;99.90
24518;DHT22;12678;51.336;12.406;2023-02-15T01:22:51;2.50;99.90
24518;DHT22;12678;51.336;12.406;2023-02-15T01:25:18;2.50;99.90
24518;DHT22;12678;51.336;12.406;2023-02-15T01:27:45;2.50;99.90
24518;DHT22;12678;51.336;12.406;2023-02-15T01:30:12;2.50;99.90
24518;DHT22;12678;51.336;12.406;2023-02-15T01:32:38;2.60;99.90
24518;DHT22;12678;51.336;12.406;2023-02-15T01:35:04;2.60;99.90
24518;DHT22;12678;51.336;12.406;2023-02-15T01:37:30;2.60;99.90
24518;DHT22;12678;51.336;12.406;2023-02-15T01:39:57;2.60;99.90
24518;DHT22;12678;51.336;12.406;2023-02-15T01:42:24;2.70;99.90
24518;DHT22;12678;51.336;12.406;2023-02-15T01:44:55;2.60;99.90
24518;DHT22;12678;51.336;12.406;2023-02-15T01:47:41;2.70;99.90
24518;DHT22;12678;51.336;12.406;2023-02-15T01:50:41;2.70;99.90
24518;DHT22;12678;51.336;12.406;2023-02-15T01:53:18;2.80;99.90
24518;DHT22;12678;51.336;12.406;2023-02-15T01:55:57;2.80;99.90
24518;DHT22;12678;51.336;12.406;2023-02-15T01:58:26;2.80;99.90
24518;DHT22;12678;51.336;12.406;2023-02-15T02:00:53;2.80;99.90
24518;DHT22;12678;51.336;12.406;2023-02-15T02:06:16;2.90;99.90
24518;DHT22;12678;51.336;12.406;2023-02-15T02:08:42;2.90;99.90
24518;DHT22;12678;51.336;12.406;2023-02-15T02:11:12;2.90;99.90
24518;DHT22;12678;51.336;12.406;2023-02-15T02:13:40;2.90;99.90
24518;DHT22;12678;51.336;12.406;2023-02-15T02:16:22;2.90;99.90
24518;DHT22;12678;51.336;12.406;2023-02-15T02:22:00;3.00;99.90
24518;DHT22;12678;51.336;12.406;2023-02-15T02:27:49;3.00;99.90
24518;DHT22;12678;51.336;12.406;2023-02-15T02:30:49;3.00;99.90
24518;DHT22;12678;51.336;12.406;2023-02-15T02:41:56;2.90;99.90
24518;DHT22;12678;51.336;12.406;2023-02-15T02:49:41;2.70;99.90
24518;DHT22;12678;51.336;12.406;2023-02-15T02:52:34;2.70;99.90
24518;DHT22;12678;51.336;12.406;2023-02-15T02:55:02;2.70;99.90
24518;DHT22;12678;51.336;12.406;2023-02-15T02:57:29;2.60;99.90
24518;DHT22;12678;51.336;12.406;2023-02-15T02:59:57;2.60;99.90
24518;DHT22;12678;51.336;12.406;2023-02-15T03:02:29;2.60;99.90
24518;DHT22;12678;51.336;12.406;2023-02-15T03:05:01;2.60;99.90
24518;DHT22;12678;51.336;12.406;2023-02-15T03:07:30;2.60;99.90
24518;DHT22;12678;51.336;12.406;2023-02-15T03:09:58;2.60;99.90
24518;DHT22;12678;51.336;12.406;2023-02-15T03:12:37;2.60;99.90
24518;DHT22;12678;51.336;12.406;2023-02-15T03:15:06;2.50;99.90
24518;DHT22;12678;51.336;12.406;2023-02-15T03:17:40;2.50;99.90
24518;DHT22;12678;51.336;12.406;2023-02-15T03:20:20;2.50;99.90
24518;DHT22;12678;51.336;12.406;2023-02-15T03:22:53;2.50;99.90
24518;DHT22;12678;51.336;12.406;2023-02-15T03:25:26;2.40;99.90
24518;DHT22;12678;51.336;12.406;2023-02-15T03:27:58;2.40;99.90
24518;DHT22;12678;51.336;12.406;2023-02-15T03:30:25;2.40;99.90
24518;DHT22;12678;51.336;12.406;2023-02-15T03:32:52;2.50;99.90
24518;DHT22;12678;51.336;12.406;2023-02-15T03:35:22;2.50;99.90
24518;DHT22;12678;51.336;12.406;2023-02-15T03:37:59;2.50;99.90
24518;DHT22;12678;51.336;12.406;2023-02-15T03:40:36;2.50;99.90
24518;DHT22;12678;51.336;12.406;2023-02-15T03:46:16;2.50;99.90
24518;DHT22;12678;51.336;12.406;2023-02-15T03:48:51;2.50;99.90
24518;DHT22;12678;51.336;12.406;2023-02-15T03:51:21;2.50;99.90
24518;DHT22;12678;51.336;12.406;2023-02-15T03:54:04;2.40;99.90
24518;DHT22;12678;51.336;12.406;2023-02-15T03:56:31;2.40;99.90
24518;DHT22;12678;51.336;12.406;2023-02-15T03:58:58;2.40;99.90
24518;DHT22;12678;51.336;12.406;2023-02-15T04:04:37;2.50;99.90
24518;DHT22;12678;51.336;12.406;2023-02-15T04:07:06;2.40;99.90
24518;DHT22;12678;51.336;12.406;2023-02-15T04:09:32;2.50;99.90
24518;DHT22;12678;51.336;12.406;2023-02-15T04:12:16;2.50;99.90
24518;DHT22;12678;51.336;12.406;2023-02-15T04:14:42;2.40;99.90
24518;DHT22;12678;51.336;12.406;2023-02-15T04:17:26;2.40;99.90
24518;DHT22;12678;51.336;12.406;2023-02-15T04:19:52;2.40;99.90
24518;DHT22;12678;51.336;12.406;2023-02-15T04:22:39;2.50;99.90
24518;DHT22;12678;51.336;12.406;2023-02-15T04:25:23;2.50;99.90
24518;DHT22;12678;51.336;12.406;2023-02-15T04:27:51;2.50;99.90
24518;DHT22;12678;51.336;12.406;2023-02-15T04:30:19;2.60;99.90
24518;DHT22;12678;51.336;12.406;2023-02-15T04:32:45;2.50;99.90
24518;DHT22;12678;51.336;12.406;2023-02-15T04:35:11;2.60;99.90
24518;DHT22;12678;51.336;12.406;2023-02-15T04:37:38;2.60;99.90
24518;DHT22;12678;51.336;12.406;2023-02-15T04:40:07;2.60;99.90
24518;DHT22;12678;51.336;12.406;2023-02-15T04:42:33;2.70;99.90
24518;DHT22;12678;51.336;12.406;2023-02-15T04:44:59;2.70;99.90
24518;DHT22;12678;51.336;12.406;2023-02-15T04:47:25;2.60;99.90
24518;DHT22;12678;51.336;12.406;2023-02-15T04:49:51;2.60;99.90
24518;DHT22;12678;51.336;12.406;2023-02-15T04:52:16;2.60;99.90
24518;DHT22;12678;51.336;12.406;2023-02-15T04:54:45;2.60;99.90
24518;DHT22;12678;51.336;12.406;2023-02-15T04:57:10;2.60;99.90
24518;DHT22;12678;51.336;12.406;2023-02-15T04:59:36;2.60;99.90
24518;DHT22;12678;51.336;12.406;2023-02-15T05:02:03;2.60;99.90
24518;DHT22;12678;51.336;12.406;2023-02-15T05:04:29;2.70;99.90
24518;DHT22;12678;51.336;12.406;2023-02-15T05:06:56;2.60;99.90
24518;DHT22;12678;51.336;12.406;2023-02-15T05:09:21;2.60;99.90
24518;DHT22;12678;51.336;12.406;2023-02-15T05:11:47;2.70;99.90
24518;DHT22;12678;51.336;12.406;2023-02-15T05:14:12;2.70;99.90
24518;DHT22;12678;51.336;12.406;2023-02-15T05:16:38;2.70;99.90
24518;DHT22;12678;51.336;12.406;2023-02-15T05:19:04;2.60;99.90
24518;DHT22;12678;51.336;12.406;2023-02-15T05:21:30;2.60;99.90
24518;DHT22;12678;51.336;12.406;2023-02-15T05:23:56;2.60;99.90
24518;DHT22;12678;51.336;12.406;2023-02-15T05:26:23;2.60;99.90
24518;DHT22;12678;51.336;12.406;2023-02-15T05:29:08;2.60;99.90
24518;DHT22;12678;51.336;12.406;2023-02-15T05:31:36;2.60;99.90
24518;DHT22;12678;51.336;12.406;2023-02-15T05:34:03;2.60;99.90
24518;DHT22;12678;51.336;12.406;2023-02-15T05:36:29;2.50;99.90
24518;DHT22;12678;51.336;12.406;2023-02-15T05:38:55;2.60;99.90
24518;DHT22;12678;51.336;12.406;2023-02-15T05:41:21;2.60;99.90
24518;DHT22;12678;51.336;12.406;2023-02-15T05:43:47;2.60;99.90
24518;DHT22;12678;51.336;12.406;2023-02-15T05:46:13;2.50;99.90
24518;DHT22;12678;51.336;12.406;2023-02-15T05:48:38;2.50;99.90
24518;DHT22;12678;51.336;12.406;2023-02-15T05:51:12;2.50;99.90
24518;DHT22;12678;51.336;12.406;2023-02-15T05:53:42;2.50;99.90
24518;DHT22;12678;51.336;12.406;2023-02-15T05:56:09;2.50;99.90
24518;DHT22;12678;51.336;12.406;2023-02-15T05:58:40;2.40;99.90
24518;DHT22;12678;51.336;12.406;2023-02-15T06:01:17;2.40;99.90
24518;DHT22;12678;51.336;12.406;2023-02-15T06:03:44;2.40;99.90
24518;DHT22;12678;51.336;12.406;2023-02-15T06:06:09;2.40;99.90
24518;DHT22;12678;51.336;12.406;2023-02-15T06:08:36;2.40;99.90
24518;DHT22;12678;51.336;12.406;2023-02-15T06:11:03;2.50;99.90
24518;DHT22;12678;51.336;12.406;2023-02-15T06:13:29;2.50;99.90
24518;DHT22;12678;51.336;12.406;2023-02-15T06:15:55;2.50;99.90
24518;DHT22;12678;51.336;12.406;2023-02-15T06:18:21;2.40;99.90
24518;DHT22;12678;51.336;12.406;2023-02-15T06:20:47;2.40;99.90
24518;DHT22;12678;51.336;12.406;2023-02-15T06:23:12;2.30;99.90
24518;DHT22;12678;51.336;12.406;2023-02-15T06:25:38;2.30;99.90
24518;DHT22;12678;51.336;12.406;2023-02-15T06:28:04;2.30;99.90
24518;DHT22;12678;51.336;12.406;2023-02-15T06:30:29;2.30;99.90
24518;DHT22;12678;51.336;12.406;2023-02-15T06:32:55;2.20;99.90
24518;DHT22;12678;51.336;12.406;2023-02-15T06:35:21;2.20;99.90
24518;DHT22;12678;51.336;12.406;2023-02-15T06:37:47;2.30;99.90
24518;DHT22;12678;51.336;12.406;2023-02-15T06:40:14;2.20;99.90
24518;DHT22;12678;51.336;12.406;2023-02-15T06:42:40;2.20;99.90
24518;DHT22;12678;51.336;12.406;2023-02-15T06:45:06;2.20;99.90
24518;DHT22;12678;51.336;12.406;2023-02-15T06:47:32;2.30;99.90
24518;DHT22;12678;51.336;12.406;2023-02-15T06:49:58;2.40;99.90
24518;DHT22;12678;51.336;12.406;2023-02-15T06:52:24;2.30;99.90
24518;DHT22;12678;51.336;12.406;2023-02-15T06:54:49;2.30;99.90
24518;DHT22;12678;51.336;12.406;2023-02-15T06:57:15;2.30;99.90
24518;DHT22;12678;51.336;12.406;2023-02-15T06:59:41;2.30;99.90
24518;DHT22;12678;51.336;12.406;2023-02-15T07:02:08;2.40;99.90
24518;DHT22;12678;51.336;12.406;2023-02-15T07:04:33;2.40;99.90
24518;DHT22;12678;51.336;12.406;2023-02-15T07:06:59;2.40;99.90
24518;DHT22;12678;51.336;12.406;2023-02-15T07:09:25;2.40;99.90
24518;DHT22;12678;51.336;12.406;2023-02-15T07:11:51;2.40;99.90
24518;DHT22;12678;51.336;12.406;2023-02-15T07:14:35;2.40;99.90
24518;DHT22;12678;51.336;12.406;2023-02-15T07:17:01;2.40;99.90
24518;DHT22;12678;51.336;12.406;2023-02-15T07:19:27;2.40;99.90
24518;DHT22;12678;51.336;12.406;2023-02-15T07:21:52;2.40;99.90
24518;DHT22;12678;51.336;12.406;2023-02-15T07:24:18;2.40;99.90
24518;DHT22;12678;51.336;12.406;2023-02-15T07:26:43;2.40;99.90
24518;DHT22;12678;51.336;12.406;2023-02-15T07:29:09;2.40;99.90
24518;DHT22;12678;51.336;12.406;2023-02-15T07:31:35;2.50;99.90
24518;DHT22;12678;51.336;12.406;2023-02-15T07:34:00;2.50;99.90
24518;DHT22;12678;51.336;12.406;2023-02-15T07:36:27;2.60;99.90
24518;DHT22;12678;51.336;12.406;2023-02-15T07:38:53;2.70;99.90
24518;DHT22;12678;51.336;12.406;2023-02-15T07:41:19;2.70;99.90
24518;DHT22;12678;51.336;12.406;2023-02-15T07:43:45;2.70;99.90
24518;DHT22;12678;51.336;12.406;2023-02-15T07:46:13;2.80;99.90
24518;DHT22;12678;51.336;12.406;2023-02-15T07:48:40;2.80;99.90
24518;DHT22;12678;51.336;12.406;2023-02-15T07:51:08;2.80;99.90
24518;DHT22;12678;51.336;12.406;2023-02-15T07:53:35;2.80;99.90
24518;DHT22;12678;51.336;12.406;2023-02-15T07:56:03;2.80;99.90
24518;DHT22;12678;51.336;12.406;2023-02-15T07:58:29;2.80;99.90
24518;DHT22;12678;51.336;12.406;2023-02-15T08:01:30;2.90;99.90
24518;DHT22;12678;51.336;12.406;2023-02-15T08:03:56;3.00;99.90
24518;DHT22;12678;51.336;12.406;2023-02-15T08:06:24;3.10;99.90
24518;DHT22;12678;51.336;12.406;2023-02-15T08:08:50;3.10;99.90
24518;DHT22;12678;51.336;12.406;2023-02-15T08:11:19;3.10;99.90
24518;DHT22;12678;51.336;12.406;2023-02-15T08:13:56;3.10;99.90
24518;DHT22;12678;51.336;12.406;2023-02-15T08:19:03;3.30;99.90
24518;DHT22;12678;51.336;12.406;2023-02-15T08:21:29;3.30;99.90
24518;DHT22;12678;51.336;12.406;2023-02-15T08:23:55;3.40;99.90
24518;DHT22;12678;51.336;12.406;2023-02-15T08:26:22;3.50;99.90
24518;DHT22;12678;51.336;12.406;2023-02-15T08:28:48;3.60;99.90
24518;DHT22;12678;51.336;12.406;2023-02-15T08:31:14;3.70;99.90
24518;DHT22;12678;51.336;12.406;2023-02-15T08:33:42;3.80;99.90
24518;DHT22;12678;51.336;12.406;2023-02-15T08:36:11;3.80;99.90
24518;DHT22;12678;51.336;12.406;2023-02-15T08:38:38;3.90;99.90
24518;DHT22;12678;51.336;12.406;2023-02-15T08:43:39;4.00;99.90
24518;DHT22;12678;51.336;12.406;2023-02-15T08:46:09;4.00;99.90
24518;DHT22;12678;51.336;12.406;2023-02-15T08:48:36;4.20;99.90
24518;DHT22;12678;51.336;12.406;2023-02-15T08:51:13;4.20;99.90
24518;DHT22;12678;51.336;12.406;2023-02-15T08:53:40;4.30;99.90
24518;DHT22;12678;51.336;12.406;2023-02-15T08:56:07;4.30;99.90
24518;DHT22;12678;51.336;12.406;2023-02-15T08:58:34;4.40;99.90
24518;DHT22;12678;51.336;12.406;2023-02-15T09:01:00;4.40;99.90
24518;DHT22;12678;51.336;12.406;2023-02-15T09:03:27;4.50;99.90
24518;DHT22;12678;51.336;12.406;2023-02-15T09:06:00;4.60;99.90
24518;DHT22;12678;51.336;12.406;2023-02-15T09:08:26;4.70;99.90
24518;DHT22;12678;51.336;12.406;2023-02-15T09:10:52;4.70;99.90
24518;DHT22;12678;51.336;12.406;2023-02-15T09:13:18;4.70;99.90
24518;DHT22;12678;51.336;12.406;2023-02-15T09:15:46;4.80;99.90
24518;DHT22;12678;51.336;12.406;2023-02-15T09:18:12;4.90;99.90
24518;DHT22;12678;51.336;12.406;2023-02-15T09:20:43;4.90;99.90
24518;DHT22;12678;51.336;12.406;2023-02-15T09:23:10;4.90;99.90
24518;DHT22;12678;51.336;12.406;2023-02-15T09:25:36;4.90;99.90
24518;DHT22;12678;51.336;12.406;2023-02-15T09:28:01;5.00;99.90
24518;DHT22;12678;51.336;12.406;2023-02-15T09:30:27;5.10;99.90
24518;DHT22;12678;51.336;12.406;2023-02-15T09:32:53;5.10;99.90
24518;DHT22;12678;51.336;12.406;2023-02-15T09:35:19;5.20;99.90
24518;DHT22;12678;51.336;12.406;2023-02-15T09:37:45;5.30;99.90
24518;DHT22;12678;51.336;12.406;2023-02-15T09:40:13;5.30;99.90
24518;DHT22;12678;51.336;12.406;2023-02-15T09:48:11;5.60;99.90
24518;DHT22;12678;51.336;12.406;2023-02-15T09:51:12;5.70;99.90
24518;DHT22;12678;51.336;12.406;2023-02-15T09:54:19;5.80;99.90
24518;DHT22;12678;51.336;12.406;2023-02-15T09:56:55;5.80;99.90
24518;DHT22;12678;51.336;12.406;2023-02-15T10:13:39;6.20;99.90
24518;DHT22;12678;51.336;12.406;2023-02-15T10:16:14;6.20;99.90
24518;DHT22;12678;51.336;12.406;2023-02-15T10:21:23;6.30;99.90
24518;DHT22;12678;51.336;12.406;2023-02-15T10:24:07;6.40;99.90
24518;DHT22;12678;51.336;12.406;2023-02-15T10:26:45;6.50;99.90
24518;DHT22;12678;51.336;12.406;2023-02-15T10:32:03;6.50;99.90
24518;DHT22;12678;51.336;12.406;2023-02-15T10:35:20;6.60;99.90
24518;DHT22;12678;51.336;12.406;2023-02-15T10:40:28;6.80;99.90
24518;DHT22;12678;51.336;12.406;2023-02-15T10:50:59;7.00;99.90
24518;DHT22;12678;51.336;12.406;2023-02-15T10:56:17;7.10;99.90
24518;DHT22;12678;51.336;12.406;2023-02-15T10:59:15;7.20;99.90
24518;DHT22;12678;51.336;12.406;2023-02-15T11:01:59;7.20;99.90
24518;DHT22;12678;51.336;12.406;2023-02-15T11:04:48;7.30;99.90
24518;DHT22;12678;51.336;12.406;2023-02-15T11:07:27;7.30;99.90
24518;DHT22;12678;51.336;12.406;2023-02-15T11:12:33;7.50;99.90
24518;DHT22;12678;51.336;12.406;2023-02-15T11:15:27;7.60;99.90
24518;DHT22;12678;51.336;12.406;2023-02-15T11:18:05;7.60;99.90
24518;DHT22;12678;51.336;12.406;2023-02-15T11:20:52;7.70;99.90
24518;DHT22;12678;51.336;12.406;2023-02-15T11:23:20;7.80;99.90
24518;DHT22;12678;51.336;12.406;2023-02-15T11:26:04;7.80;99.90
24518;DHT22;12678;51.336;12.406;2023-02-15T11:28:37;7.90;99.90
24518;DHT22;12678;51.336;12.406;2023-02-15T11:31:15;7.80;99.90
24518;DHT22;12678;51.336;12.406;2023-02-15T11:33:46;7.90;99.90
24518;DHT22;12678;51.336;12.406;2023-02-15T11:36:21;8.00;99.90
24518;DHT22;12678;51.336;12.406;2023-02-15T11:38:50;8.00;99.90
24518;DHT22;12678;51.336;12.406;2023-02-15T11:41:21;8.10;99.90
24518;DHT22;12678;51.336;12.406;2023-02-15T11:43:56;8.20;99.90
24518;DHT22;12678;51.336;12.406;2023-02-15T11:46:23;8.20;99.90
24518;DHT22;12678;51.336;12.406;2023-02-15T11:48:49;8.30;99.90
24518;DHT22;12678;51.336;12.406;2023-02-15T11:51:19;8.30;99.90
24518;DHT22;12678;51.336;12.406;2023-02-15T11:53:46;8.40;99.90
24518;DHT22;12678;51.336;12.406;2023-02-15T11:56:21;8.40;99.90
24518;DHT22;12678;51.336;12.406;2023-02-15T11:58:55;8.50;99.90
24518;DHT22;12678;51.336;12.406;2023-02-15T12:01:44;8.50;99.90
24518;DHT22;12678;51.336;12.406;2023-02-15T12:04:28;8.50;99.90
24518;DHT22;12678;51.336;12.406;2023-02-15T12:09:47;8.50;99.90
24518;DHT22;12678;51.336;12.406;2023-02-15T12:12:28;8.50;99.90
24518;DHT22;12678;51.336;12.406;2023-02-15T12:14:59;8.60;99.90
24518;DHT22;12678;51.336;12.406;2023-02-15T12:17:55;8.60;99.90
24518;DHT22;12678;51.336;12.406;2023-02-15T12:20:25;8.70;99.90
24518;DHT22;12678;51.336;12.406;2023-02-15T12:23:03;8.80;99.90
24518;DHT22;12678;51.336;12.406;2023-02-15T12:27:59;8.90;99.90
24518;DHT22;12678;51.336;12.406;2023-02-15T12:30:26;9.00;99.90
24518;DHT22;12678;51.336;12.406;2023-02-15T12:35:32;9.10;99.90
24518;DHT22;12678;51.336;12.406;2023-02-15T12:40:37;9.10;99.90
24518;DHT22;12678;51.336;12.406;2023-02-15T12:43:04;9.10;99.90
24518;DHT22;12678;51.336;12.406;2023-02-15T12:45:35;9.20;99.90
24518;DHT22;12678;51.336;12.406;2023-02-15T12:50:35;9.30;99.90
24518;DHT22;12678;51.336;12.406;2023-02-15T12:53:31;9.30;99.90
24518;DHT22;12678;51.336;12.406;2023-02-15T12:56:01;9.30;99.90
24518;DHT22;12678;51.336;12.406;2023-02-15T12:58:35;9.40;99.90
24518;DHT22;12678;51.336;12.406;2023-02-15T13:01:17;9.40;99.90
24518;DHT22;12678;51.336;12.406;2023-02-15T13:04:01;9.40;99.90
24518;DHT22;12678;51.336;12.406;2023-02-15T13:06:31;9.40;99.90
24518;DHT22;12678;51.336;12.406;2023-02-15T13:09:06;9.50;99.90
24518;DHT22;12678;51.336;12.406;2023-02-15T13:11:33;9.50;99.90
24518;DHT22;12678;51.336;12.406;2023-02-15T13:14:07;9.50;99.90
24518;DHT22;12678;51.336;12.406;2023-02-15T13:16:44;9.60;99.90
24518;DHT22;12678;51.336;12.406;2023-02-15T13:19:17;9.60;99.90
24518;DHT22;12678;51.336;12.406;2023-02-15T13:21:48;9.60;99.90
24518;DHT22;12678;51.336;12.406;2023-02-15T13:24:33;9.70;99.90
24518;DHT22;12678;51.336;12.406;2023-02-15T13:27:01;9.70;99.90
24518;DHT22;12678;51.336;12.406;2023-02-15T13:29:31;9.90;99.90
24518;DHT22;12678;51.336;12.406;2023-02-15T13:32:05;9.90;99.90
24518;DHT22;12678;51.336;12.406;2023-02-15T13:34:36;10.00;99.90
24518;DHT22;12678;51.336;12.406;2023-02-15T13:40:12;10.10;99.90
24518;DHT22;12678;51.336;12.406;2023-02-15T13:42:59;10.10;99.90
24518;DHT22;12678;51.336;12.406;2023-02-15T13:51:14;10.10;99.90
24518;DHT22;12678;51.336;12.406;2023-02-15T13:53:56;10.10;99.90
24518;DHT22;12678;51.336;12.406;2023-02-15T13:56:40;10.20;99.90
24518;DHT22;12678;51.336;12.406;2023-02-15T14:05:13;10.10;99.90
24518;DHT22;12678;51.336;12.406;2023-02-15T14:16:04;10.20;99.90
24518;DHT22;12678;51.336;12.406;2023-02-15T14:18:57;10.30;99.90
24518;DHT22;12678;51.336;12.406;2023-02-15T14:21:32;10.30;99.90
24518;DHT22;12678;51.336;12.406;2023-02-15T14:24:14;10.30;99.90
24518;DHT22;12678;51.336;12.406;2023-02-15T14:27:07;10.30;99.90
24518;DHT22;12678;51.336;12.406;2023-02-15T14:29:48;10.30;99.90
24518;DHT22;12678;51.336;12.406;2023-02-15T14:32:37;10.30;99.90
24518;DHT22;12678;51.336;12.406;2023-02-15T14:35:08;10.30;99.90
24518;DHT22;12678;51.336;12.406;2023-02-15T14:45:55;10.30;99.90
24518;DHT22;12678;51.336;12.406;2023-02-15T14:48:25;10.30;99.90
24518;DHT22;12678;51.336;12.406;2023-02-15T14:50:52;10.40;99.90
24518;DHT22;12678;51.336;12.406;2023-02-15T14:53:32;10.40;99.90
24518;DHT22;12678;51.336;12.406;2023-02-15T15:01:27;10.30;99.90
24518;DHT22;12678;51.336;12.406;2023-02-15T15:03:57;10.30;99.90
24518;DHT22;12678;51.336;12.406;2023-02-15T15:06:29;10.30;99.90
24518;DHT22;12678;51.336;12.406;2023-02-15T15:09:00;10.30;99.90
24518;DHT22;12678;51.336;12.406;2023-02-15T15:13:59;10.20;99.90
24518;DHT22;12678;51.336;12.406;2023-02-15T15:16:46;10.20;99.90
24518;DHT22;12678;51.336;12.406;2023-02-15T15:22:33;10.30;99.90
24518;DHT22;12678;51.336;12.406;2023-02-15T15:25:00;10.20;99.90
24518;DHT22;12678;51.336;12.406;2023-02-15T15:27:43;10.20;99.90
24518;DHT22;12678;51.336;12.406;2023-02-15T15:41:48;10.20;99.90
24518;DHT22;12678;51.336;12.406;2023-02-15T15:44:34;10.30;99.90
24518;DHT22;12678;51.336;12.406;2023-02-15T15:49:41;10.20;99.90
24518;DHT22;12678;51.336;12.406;2023-02-15T15:52:17;10.20;99.90
24518;DHT22;12678;51.336;12.406;2023-02-15T15:54:44;10.10;99.90
24518;DHT22;12678;51.336;12.406;2023-02-15T15:57:35;10.10;99.90
24518;DHT22;12678;51.336;12.406;2023-02-15T16:00:04;10.10;99.90
24518;DHT22;12678;51.336;12.406;2023-02-15T16:02:53;10.10;99.90
24518;DHT22;12678;51.336;12.406;2023-02-15T16:05:20;10.10;99.90
24518;DHT22;12678;51.336;12.406;2023-02-15T16:07:46;10.00;99.90
24518;DHT22;12678;51.336;12.406;2023-02-15T16:10:27;10.00;99.90
24518;DHT22;12678;51.336;12.406;2023-02-15T16:12:54;9.90;99.90
24518;DHT22;12678;51.336;12.406;2023-02-15T16:15:23;9.90;99.90
24518;DHT22;12678;51.336;12.406;2023-02-15T16:17:52;9.80;99.90
24518;DHT22;12678;51.336;12.406;2023-02-15T16:20:26;9.80;99.90
24518;DHT22;12678;51.336;12.406;2023-02-15T16:26:09;9.70;99.90
24518;DHT22;12678;51.336;12.406;2023-02-15T16:28:39;9.70;99.90
24518;DHT22;12678;51.336;12.406;2023-02-15T16:31:13;9.60;99.90
24518;DHT22;12678;51.336;12.406;2023-02-15T16:33:40;9.60;99.90
24518;DHT22;12678;51.336;12.406;2023-02-15T16:36:10;9.60;99.90
24518;DHT22;12678;51.336;12.406;2023-02-15T16:41:09;9.40;99.90
24518;DHT22;12678;51.336;12.406;2023-02-15T16:43:37;9.40;99.90
24518;DHT22;12678;51.336;12.406;2023-02-15T16:46:08;9.40;99.90
24518;DHT22;12678;51.336;12.406;2023-02-15T16:48:39;9.30;99.90
24518;DHT22;12678;51.336;12.406;2023-02-15T16:51:06;9.30;99.90
24518;DHT22;12678;51.336;12.406;2023-02-15T16:53:32;9.20;99.90
24518;DHT22;12678;51.336;12.406;2023-02-15T16:56:00;9.20;99.90
24518;DHT22;12678;51.336;12.406;2023-02-15T17:00:57;9.00;99.90
24518;DHT22;12678;51.336;12.406;2023-02-15T17:03:25;9.00;99.90
24518;DHT22;12678;51.336;12.406;2023-02-15T17:05:56;8.90;99.90
24518;DHT22;12678;51.336;12.406;2023-02-15T17:08:31;8.90;99.90
24518;DHT22;12678;51.336;12.406;2023-02-15T17:11:04;8.90;99.90
24518;DHT22;12678;51.336;12.406;2023-02-15T17:13:30;8.80;99.90
24518;DHT22;12678;51.336;12.406;2023-02-15T17:21:00;8.70;99.90
24518;DHT22;12678;51.336;12.406;2023-02-15T17:23:33;8.70;99.90
24518;DHT22;12678;51.336;12.406;2023-02-15T17:26:20;8.70;99.90
24518;DHT22;12678;51.336;12.406;2023-02-15T17:28:51;8.70;99.90
24518;DHT22;12678;51.336;12.406;2023-02-15T17:31:19;8.70;99.90
24518;DHT22;12678;51.336;12.406;2023-02-15T17:33:46;8.70;99.90
24518;DHT22;12678;51.336;12.406;2023-02-15T17:36:14;8.60;99.90
24518;DHT22;12678;51.336;12.406;2023-02-15T17:41:28;8.40;99.90
24518;DHT22;12678;51.336;12.406;2023-02-15T17:43:54;8.40;99.90
24518;DHT22;12678;51.336;12.406;2023-02-15T17:46:21;8.40;99.90
24518;DHT22;12678;51.336;12.406;2023-02-15T17:48:53;8.30;99.90
24518;DHT22;12678;51.336;12.406;2023-02-15T17:51:20;8.30;99.90
24518;DHT22;12678;51.336;12.406;2023-02-15T17:53:47;8.30;99.90
24518;DHT22;12678;51.336;12.406;2023-02-15T17:56:32;8.20;99.90
24518;DHT22;12678;51.336;12.406;2023-02-15T17:58:58;8.20;99.90
24518;DHT22;12678;51.336;12.406;2023-02-15T18:01:24;8.20;99.90
24518;DHT22;12678;51.336;12.406;2023-02-15T18:04:11;8.20;99.90
24518;DHT22;12678;51.336;12.406;2023-02-15T18:06:56;8.20;99.90
24518;DHT22;12678;51.336;12.406;2023-02-15T18:09:40;8.10;99.90
24518;DHT22;12678;51.336;12.406;2023-02-15T18:12:26;8.10;99.90
24518;DHT22;12678;51.336;12.406;2023-02-15T18:14:53;8.10;99.90
24518;DHT22;12678;51.336;12.406;2023-02-15T18:17:24;8.10;99.90
24518;DHT22;12678;51.336;12.406;2023-02-15T18:19:51;8.10;99.90
24518;DHT22;12678;51.336;12.406;2023-02-15T18:22:19;8.10;99.90
24518;DHT22;12678;51.336;12.406;2023-02-15T18:24:46;8.10;99.90
24518;DHT22;12678;51.336;12.406;2023-02-15T18:27:13;8.10;99.90
24518;DHT22;12678;51.336;12.406;2023-02-15T18:29:40;8.00;99.90
24518;DHT22;12678;51.336;12.406;2023-02-15T18:32:27;8.00;99.90
24518;DHT22;12678;51.336;12.406;2023-02-15T18:34:57;7.90;99.90
24518;DHT22;12678;51.336;12.406;2023-02-15T18:37:27;7.90;99.90
24518;DHT22;12678;51.336;12.406;2023-02-15T18:39:53;7.80;99.90